createdAt,value
2023-04-16T00:02:18.878Z,46.95
2023-04-16T00:05:04.436Z,46.37
2023-04-16T00:07:49.553Z,44.93
2023-04-16T00:10:35.313Z,46.53
2023-04-16T00:13:20.861Z,45.67
2023-04-16T00:16:06.859Z,45.72
2023-04-16T00:18:51.933Z,48.40
2023-04-16T00:21:37.591Z,46.87
2023-04-16T00:24:22.734Z,47.95
2023-04-16T00:27:08.106Z,47.03
2023-04-16T00:29:53.180Z,47.43
2023-04-16T00:32:38.468Z,46.47
2023-04-16T00:35:23.901Z,47.80
2023-04-16T00:38:09.147Z,45.40
2023-04-16T00:40:54.121Z,47.03
2023-04-16T00:43:39.597Z,47.93
2023-04-16T00:46:25.669Z,47.77
2023-04-16T00:49:11.048Z,47.17
2023-04-16T00:51:56.377Z,49.83
2023-04-16T00:54:41.636Z,47.17
2023-04-16T00:57:26.653Z,47.70
2023-04-16T01:00:12.350Z,47.23
2023-04-16T01:02:58.971Z,47.03
2023-04-16T01:05:44.583Z,48.93
2023-04-16T01:08:29.917Z,48.97
2023-04-16T01:11:15.691Z,49.27
2023-04-16T01:14:01.069Z,47.90
2023-04-16T01:16:46.610Z,47.80
2023-04-16T01:19:31.959Z,48.63
2023-04-16T01:22:17.446Z,47.87
2023-04-16T01:25:02.364Z,48.83
2023-04-16T01:27:50.787Z,50.20
2023-04-16T01:30:35.765Z,50.13
2023-04-16T01:33:21.960Z,50.60
2023-04-16T01:36:07.617Z,48.73
2023-04-16T01:38:53.087Z,51.73
2023-04-16T01:41:38.530Z,49.33
2023-04-16T01:44:23.980Z,51.20
2023-04-16T01:47:09.324Z,49.00
2023-04-16T01:49:54.769Z,51.03
2023-04-16T01:52:40.041Z,50.70
2023-04-16T01:55:25.418Z,50.55
2023-04-16T01:58:10.874Z,50.90
2023-04-16T02:00:56.382Z,51.87
2023-04-16T02:03:42.068Z,50.57
2023-04-16T02:06:27.322Z,51.43
2023-04-16T02:09:12.812Z,51.53
2023-04-16T02:11:57.694Z,52.13
2023-04-16T02:14:43.134Z,52.87
2023-04-16T02:17:28.746Z,53.10
2023-04-16T02:20:14.033Z,51.33
2023-04-16T02:22:59.540Z,51.93
2023-04-16T02:25:47.074Z,52.25
2023-04-16T02:28:32.214Z,52.77
2023-04-16T02:31:17.541Z,50.78
2023-04-16T02:34:03.406Z,52.60
2023-04-16T02:36:48.873Z,51.13
2023-04-16T02:39:34.362Z,52.05
2023-04-16T02:42:19.767Z,52.42
2023-04-16T02:45:05.581Z,51.97
2023-04-16T02:47:51.707Z,52.50
2023-04-16T02:50:37.529Z,51.53
2023-04-16T02:53:22.999Z,51.65
2023-04-16T02:56:08.272Z,51.10
2023-04-16T02:58:53.691Z,50.75
2023-04-16T03:01:39.023Z,51.65
2023-04-16T03:04:24.470Z,49.28
2023-04-16T03:07:09.805Z,51.43
2023-04-16T03:09:55.281Z,51.77
2023-04-16T03:12:40.612Z,52.17
2023-04-16T03:15:25.924Z,52.72
2023-04-16T03:18:11.163Z,51.23
2023-04-16T03:20:56.556Z,52.20
2023-04-16T03:23:41.828Z,51.57
2023-04-16T03:26:27.419Z,51.60
2023-04-16T03:29:12.790Z,50.47
2023-04-16T03:31:57.624Z,51.90
2023-04-16T03:34:43.022Z,50.67
2023-04-16T03:37:28.292Z,51.13
2023-04-16T03:40:14.090Z,51.83
2023-04-16T03:42:59.116Z,52.65
2023-04-16T03:45:45.439Z,51.57
2023-04-16T03:48:30.697Z,51.33
2023-04-16T03:51:16.170Z,52.38
2023-04-16T03:54:01.589Z,53.57
2023-04-16T03:56:46.888Z,52.40
2023-04-16T03:59:32.370Z,53.57
2023-04-16T04:02:17.828Z,56.03
2023-04-16T04:05:03.202Z,53.87
2023-04-16T04:07:48.708Z,53.28
2023-04-16T04:10:35.132Z,52.58
2023-04-16T04:13:20.515Z,53.38
2023-04-16T04:16:06.330Z,52.90
2023-04-16T04:18:51.626Z,54.72
2023-04-16T04:21:36.984Z,52.70
2023-04-16T04:24:22.273Z,53.47
2023-04-16T04:27:07.244Z,55.27
2023-04-16T04:29:53.309Z,56.03
2023-04-16T04:32:38.587Z,52.90
2023-04-16T04:35:23.780Z,52.83
2023-04-16T04:38:09.236Z,52.43
2023-04-16T04:40:54.706Z,51.73
2023-04-16T04:43:40.094Z,50.70
2023-04-16T04:46:25.197Z,51.63
2023-04-16T04:49:10.747Z,52.00
2023-04-16T04:51:56.155Z,50.83
2023-04-16T04:54:40.985Z,50.97
2023-04-16T04:57:26.503Z,50.93
2023-04-16T05:00:12.150Z,52.47
2023-04-16T05:02:57.411Z,50.53
2023-04-16T05:05:42.876Z,50.37
2023-04-16T05:08:28.184Z,48.03
2023-04-16T05:11:13.587Z,49.40
2023-04-16T05:13:58.390Z,50.70
2023-04-16T05:16:43.720Z,50.30
2023-04-16T05:19:29.170Z,49.63
2023-04-16T05:22:14.531Z,48.87
2023-04-16T05:24:59.895Z,48.17
2023-04-16T05:27:45.184Z,51.10
2023-04-16T05:30:30.633Z,49.63
2023-04-16T05:33:16.025Z,47.77
2023-04-16T05:36:01.570Z,49.57
2023-04-16T05:38:46.646Z,50.40
2023-04-16T05:41:31.876Z,48.37
2023-04-16T05:44:17.326Z,48.70
2023-04-16T05:47:02.644Z,50.17
2023-04-16T05:49:47.561Z,49.37
2023-04-16T05:52:32.916Z,51.13
2023-04-16T05:55:18.254Z,48.40
2023-04-16T05:58:03.566Z,47.27
2023-04-16T06:00:48.747Z,48.97
2023-04-16T06:03:34.152Z,48.93
2023-04-16T06:06:19.519Z,47.37
2023-04-16T06:09:04.640Z,47.50
2023-04-16T06:11:50.063Z,48.93
2023-04-16T06:14:35.312Z,49.03
2023-04-16T06:17:20.818Z,50.93
2023-04-16T06:20:06.485Z,49.80
2023-04-16T06:22:51.707Z,49.67
2023-04-16T06:25:37.186Z,49.13
2023-04-16T06:28:22.446Z,49.13
2023-04-16T06:31:07.691Z,47.97
2023-04-16T06:33:52.902Z,48.80
2023-04-16T06:36:38.211Z,49.50
2023-04-16T06:39:23.679Z,48.97
2023-04-16T06:42:09.111Z,48.00
2023-04-16T06:44:54.558Z,46.63
2023-04-16T06:47:40.010Z,46.67
2023-04-16T06:50:26.131Z,47.00
2023-04-16T06:53:11.423Z,45.30
2023-04-16T06:55:56.701Z,46.47
2023-04-16T06:58:42.253Z,43.37
2023-04-16T07:01:28.339Z,44.17
2023-04-16T07:04:13.506Z,44.53
2023-04-16T07:06:58.884Z,43.50
2023-04-16T07:09:44.342Z,46.13
2023-04-16T07:12:29.720Z,46.60
2023-04-16T07:15:14.975Z,43.63
2023-04-16T07:18:00.471Z,44.53
2023-04-16T07:20:45.716Z,43.40
2023-04-16T07:23:31.095Z,42.33
2023-04-16T07:26:16.642Z,41.23
2023-04-16T07:29:01.975Z,49.17
2023-04-16T07:31:47.556Z,39.63
2023-04-16T07:34:32.694Z,39.07
2023-04-16T07:37:18.058Z,39.53
2023-04-16T07:40:02.899Z,40.67
2023-04-16T07:42:48.289Z,41.77
2023-04-16T07:45:33.995Z,40.07
2023-04-16T07:48:18.922Z,38.80
2023-04-16T07:51:04.635Z,35.50
2023-04-16T07:53:49.878Z,37.47
2023-04-16T07:56:35.701Z,35.77
2023-04-16T07:59:23.655Z,35.87
2023-04-16T08:02:14.208Z,36.97
2023-04-16T08:04:59.744Z,35.33
2023-04-16T08:07:44.829Z,32.70
2023-04-16T08:10:30.043Z,32.50
2023-04-16T08:13:15.387Z,33.07
2023-04-16T08:16:01.082Z,32.13
2023-04-16T08:18:46.359Z,32.87
2023-04-16T08:21:31.517Z,32.63
2023-04-16T08:24:16.856Z,32.50
2023-04-16T08:27:15.564Z,32.55
2023-04-16T08:30:04.070Z,32.23
2023-04-16T08:32:50.298Z,33.42
2023-04-16T08:35:35.472Z,32.77
2023-04-16T08:38:20.334Z,31.07
2023-04-16T08:41:08.490Z,32.50
2023-04-16T08:43:56.088Z,34.23
2023-04-16T08:46:41.671Z,32.00
2023-04-16T08:49:27.762Z,30.50
2023-04-16T08:52:19.467Z,31.60
2023-04-16T08:55:12.175Z,32.90
2023-04-16T08:58:01.558Z,33.03
2023-04-16T09:00:48.888Z,32.75
2023-04-16T09:03:36.504Z,32.10
2023-04-16T09:06:22.451Z,31.33
2023-04-16T09:09:09.207Z,31.87
2023-04-16T09:11:55.881Z,31.25
2023-04-16T09:14:41.212Z,31.42
2023-04-16T09:17:26.390Z,31.63
2023-04-16T09:20:12.564Z,29.02
2023-04-16T09:22:57.827Z,30.05
2023-04-16T09:25:43.133Z,29.52
2023-04-16T09:28:40.117Z,29.52
2023-04-16T09:31:25.387Z,29.90
2023-04-16T09:34:10.803Z,29.60
2023-04-16T09:36:56.138Z,31.55
2023-04-16T09:39:42.925Z,29.88
2023-04-16T09:42:30.926Z,29.52
2023-04-16T09:45:17.209Z,29.17
2023-04-16T09:48:03.654Z,30.20
2023-04-16T09:50:52.121Z,29.90
2023-04-16T09:53:37.178Z,29.98
2023-04-16T09:56:25.757Z,30.33
2023-04-16T09:59:31.387Z,33.22
2023-04-16T10:02:17.393Z,30.88
2023-04-16T10:05:03.118Z,31.02
2023-04-16T10:07:48.259Z,29.67
2023-04-16T10:10:33.872Z,31.23
2023-04-16T10:13:18.983Z,30.52
2023-04-16T10:16:04.954Z,30.65
2023-04-16T10:18:50.046Z,27.60
2023-04-16T10:21:35.494Z,29.25
2023-04-16T10:24:20.928Z,29.42
2023-04-16T10:27:06.417Z,28.83
2023-04-16T10:29:51.864Z,28.33
2023-04-16T10:32:38.222Z,28.40
2023-04-16T10:35:25.477Z,28.93
2023-04-16T10:38:22.916Z,28.27
2023-04-16T10:41:08.488Z,28.85
2023-04-16T10:44:03.237Z,27.92
2023-04-16T10:46:49.009Z,29.02
2023-04-16T10:49:35.473Z,29.15
2023-04-16T10:52:20.806Z,29.52
2023-04-16T10:55:06.764Z,28.92
2023-04-16T10:57:52.118Z,28.65
2023-04-16T11:01:07.928Z,31.40
2023-04-16T11:03:53.503Z,29.90
2023-04-16T11:06:38.670Z,29.95
2023-04-16T11:09:45.880Z,28.48
2023-04-16T11:12:36.147Z,30.80
2023-04-16T11:15:21.470Z,30.45
2023-04-16T11:18:07.530Z,29.52
2023-04-16T11:20:52.968Z,29.92
2023-04-16T11:23:49.696Z,29.65
2023-04-16T11:26:34.976Z,28.48
2023-04-16T11:29:20.308Z,29.20
2023-04-16T11:32:06.308Z,29.73
2023-04-16T11:34:51.995Z,29.52
2023-04-16T11:37:38.848Z,30.17
2023-04-16T11:40:24.414Z,30.70
2023-04-16T11:43:16.805Z,30.70
2023-04-16T11:46:10.313Z,30.20
2023-04-16T11:49:06.874Z,29.98
2023-04-16T11:51:52.991Z,30.23
2023-04-16T11:54:38.492Z,36.35
2023-04-16T11:57:27.924Z,31.00
2023-04-16T12:00:14.849Z,29.08
2023-04-16T12:03:03.012Z,30.23
2023-04-16T12:05:48.419Z,30.50
2023-04-16T12:08:34.484Z,31.33
2023-04-16T12:11:19.860Z,30.33
2023-04-16T12:14:10.469Z,29.40
2023-04-16T12:16:56.043Z,28.90
2023-04-16T12:19:51.205Z,28.58
2023-04-16T12:22:38.660Z,30.17
2023-04-16T12:25:24.593Z,28.75
2023-04-16T12:28:10.009Z,29.05
2023-04-16T12:30:55.889Z,28.48
2023-04-16T12:33:41.200Z,28.88
2023-04-16T12:36:26.130Z,28.63
2023-04-16T12:39:12.438Z,26.80
2023-04-16T12:41:57.839Z,27.95
2023-04-16T12:44:43.388Z,27.45
2023-04-16T12:47:28.883Z,28.60
2023-04-16T12:50:14.262Z,26.33
2023-04-16T12:52:59.755Z,27.60
2023-04-16T12:55:45.062Z,27.25
2023-04-16T12:58:30.391Z,27.27
2023-04-16T13:01:15.407Z,27.40
2023-04-16T13:04:01.092Z,26.67
2023-04-16T13:06:46.299Z,29.52
2023-04-16T13:09:31.843Z,27.98
2023-04-16T13:12:16.824Z,26.92
2023-04-16T13:15:02.027Z,28.33
2023-04-16T13:17:47.161Z,28.38
2023-04-16T13:20:33.135Z,27.10
2023-04-16T13:23:18.377Z,26.75
2023-04-16T13:26:03.240Z,26.92
2023-04-16T13:28:48.352Z,27.58
2023-04-16T13:31:33.689Z,26.30
2023-04-16T13:34:19.736Z,26.58
2023-04-16T13:37:05.047Z,25.17
2023-04-16T13:39:50.477Z,25.20
2023-04-16T13:42:35.374Z,24.75
2023-04-16T13:45:20.850Z,24.45
2023-04-16T13:48:05.827Z,23.15
2023-04-16T13:50:51.065Z,24.88
2023-04-16T13:53:36.298Z,24.80
2023-04-16T13:56:21.817Z,24.15
2023-04-16T13:59:07.780Z,23.85
2023-04-16T14:01:53.177Z,23.55
2023-04-16T14:04:38.248Z,23.17
2023-04-16T14:07:23.758Z,22.63
2023-04-16T14:10:09.681Z,22.98
2023-04-16T14:12:55.026Z,23.13
2023-04-16T14:15:40.085Z,22.48
2023-04-16T14:18:23.092Z,22.10
2023-04-16T14:21:08.689Z,22.08
2023-04-16T14:23:53.792Z,22.02
2023-04-16T14:26:39.163Z,22.63
2023-04-16T14:29:24.574Z,21.60
2023-04-16T14:32:10.239Z,22.50
2023-04-16T14:34:55.654Z,21.73
2023-04-16T14:37:41.150Z,21.88
2023-04-16T14:40:26.222Z,22.33
2023-04-16T14:43:11.497Z,21.75
2023-04-16T14:45:57.070Z,22.00
2023-04-16T14:48:43.097Z,21.10
2023-04-16T14:51:28.456Z,22.60
2023-04-16T14:54:14.024Z,22.20
2023-04-16T14:56:59.541Z,22.77
2023-04-16T14:59:44.664Z,21.13
2023-04-16T15:02:30.225Z,20.60
2023-04-16T15:05:15.562Z,21.55
2023-04-16T15:08:00.708Z,21.05
2023-04-16T15:10:45.942Z,22.38
2023-04-16T15:13:31.087Z,21.15
2023-04-16T15:16:17.101Z,22.20
2023-04-16T15:19:04.802Z,20.80
2023-04-16T15:21:50.138Z,21.75
2023-04-16T15:24:35.521Z,21.08
2023-04-16T15:27:20.829Z,21.08
2023-04-16T15:30:07.175Z,20.77
2023-04-16T15:32:52.172Z,21.50
2023-04-16T15:35:37.905Z,20.65
2023-04-16T15:38:22.988Z,21.02
2023-04-16T15:41:09.472Z,20.17
2023-04-16T15:43:54.460Z,20.65
2023-04-16T15:46:39.980Z,21.50
2023-04-16T15:49:25.781Z,21.85
2023-04-16T15:52:11.386Z,23.25
2023-04-16T15:54:56.873Z,19.83
2023-04-16T15:57:42.213Z,21.08
2023-04-16T16:00:27.434Z,20.02
2023-04-16T16:03:13.116Z,20.45
2023-04-16T16:05:59.409Z,22.17
2023-04-16T16:08:44.914Z,20.52
2023-04-16T16:11:30.445Z,21.80
2023-04-16T16:14:18.112Z,20.63
2023-04-16T16:17:03.686Z,20.35
2023-04-16T16:19:49.057Z,19.40
2023-04-16T16:22:34.473Z,20.70
2023-04-16T16:25:20.185Z,21.25
2023-04-16T16:28:06.526Z,20.88
2023-04-16T16:30:52.058Z,20.95
2023-04-16T16:33:38.481Z,20.60
2023-04-16T16:36:26.023Z,19.90
2023-04-16T16:39:11.679Z,20.60
2023-04-16T16:41:57.000Z,20.60
2023-04-16T16:44:42.174Z,19.73
2023-04-16T16:47:27.685Z,21.02
2023-04-16T16:50:13.001Z,20.75
2023-04-16T16:52:59.380Z,21.02
2023-04-16T16:55:44.384Z,20.13
2023-04-16T16:58:29.805Z,19.88
2023-04-16T17:01:14.749Z,19.08
2023-04-16T17:04:00.355Z,20.65
2023-04-16T17:06:45.561Z,20.35
2023-04-16T17:09:31.464Z,18.33
2023-04-16T17:12:16.758Z,18.65
2023-04-16T17:15:01.624Z,16.75
2023-04-16T17:17:47.025Z,17.48
2023-04-16T17:20:32.456Z,17.65
2023-04-16T17:23:17.626Z,17.25
2023-04-16T17:26:02.544Z,17.70
2023-04-16T17:28:47.852Z,18.05
2023-04-16T17:31:33.198Z,17.88
2023-04-16T17:34:20.964Z,18.33
2023-04-16T17:37:06.327Z,18.33
2023-04-16T17:39:51.758Z,17.67
2023-04-16T17:42:37.325Z,18.15
2023-04-16T17:45:22.805Z,18.95
2023-04-16T17:48:08.197Z,18.38
2023-04-16T17:50:53.465Z,18.15
2023-04-16T17:53:38.514Z,19.50
2023-04-16T17:56:23.721Z,19.60
2023-04-16T17:59:09.073Z,19.00
2023-04-16T18:01:54.793Z,18.40
2023-04-16T18:04:39.953Z,19.10
2023-04-16T18:07:25.343Z,19.48
2023-04-16T18:10:10.247Z,19.40
2023-04-16T18:12:55.420Z,19.65
2023-04-16T18:15:40.887Z,19.45
2023-04-16T18:18:26.335Z,19.83
2023-04-16T18:21:12.033Z,19.45
2023-04-16T18:23:57.349Z,19.63
2023-04-16T18:26:42.522Z,20.95
2023-04-16T18:29:33.948Z,20.88
2023-04-16T18:32:19.188Z,21.17
2023-04-16T18:35:08.270Z,20.90
2023-04-16T18:37:53.415Z,20.65
2023-04-16T18:40:39.761Z,21.08
2023-04-16T18:43:25.184Z,20.40
2023-04-16T18:46:10.708Z,20.77
2023-04-16T18:48:55.502Z,21.23
2023-04-16T18:51:41.009Z,21.23
2023-04-16T18:54:26.453Z,21.77
2023-04-16T18:57:11.854Z,21.10
2023-04-16T18:59:57.246Z,22.40
2023-04-16T19:02:42.704Z,20.58
2023-04-16T19:05:29.338Z,22.65
2023-04-16T19:08:14.542Z,22.23
2023-04-16T19:11:00.184Z,23.17
2023-04-16T19:13:45.662Z,22.25
2023-04-16T19:16:31.727Z,22.27
2023-04-16T19:19:17.216Z,21.60
2023-04-16T19:22:02.518Z,23.52
2023-04-16T19:24:47.858Z,23.17
2023-04-16T19:27:33.614Z,22.73
2023-04-16T19:30:19.075Z,22.75
2023-04-16T19:33:04.433Z,23.60
2023-04-16T19:35:49.790Z,23.50
2023-04-16T19:38:35.134Z,23.25
2023-04-16T19:41:20.326Z,25.02
2023-04-16T19:44:05.801Z,23.40
2023-04-16T19:46:51.285Z,23.45
2023-04-16T19:49:36.803Z,24.15
2023-04-16T19:52:21.712Z,27.65
2023-04-16T19:55:07.623Z,30.55
2023-04-16T19:57:52.948Z,32.58
2023-04-16T20:00:39.589Z,30.42
2023-04-16T20:03:24.711Z,28.23
2023-04-16T20:06:10.146Z,29.02
2023-04-16T20:08:56.249Z,27.60
2023-04-16T20:11:41.506Z,28.97
2023-04-16T20:14:26.881Z,27.83
2023-04-16T20:17:12.402Z,28.70
2023-04-16T20:19:57.912Z,28.98
2023-04-16T20:22:43.411Z,28.40
2023-04-16T20:25:28.543Z,28.85
2023-04-16T20:28:13.863Z,29.50
2023-04-16T20:31:02.242Z,28.83
2023-04-16T20:33:47.701Z,29.00
2023-04-16T20:36:33.030Z,29.00
2023-04-16T20:39:18.224Z,29.73
2023-04-16T20:42:03.803Z,30.48
2023-04-16T20:44:49.485Z,28.95
2023-04-16T20:47:35.083Z,29.03
2023-04-16T20:50:20.150Z,29.77
2023-04-16T20:53:05.473Z,29.42
2023-04-16T20:55:50.925Z,28.83
2023-04-16T20:58:36.287Z,28.53
2023-04-16T21:01:21.859Z,28.55
2023-04-16T21:04:07.388Z,29.67
2023-04-16T21:06:52.381Z,30.07
2023-04-16T21:09:37.780Z,30.80
2023-04-16T21:12:23.341Z,30.42
2023-04-16T21:15:09.110Z,30.20
2023-04-16T21:17:54.115Z,29.90
2023-04-16T21:20:39.673Z,29.60
2023-04-16T21:23:24.779Z,30.20
2023-04-16T21:26:10.352Z,28.58
2023-04-16T21:28:55.735Z,28.95
2023-04-16T21:31:41.211Z,27.53
2023-04-16T21:34:26.551Z,27.73
2023-04-16T21:37:11.766Z,27.53
2023-04-16T21:39:57.208Z,26.88
2023-04-16T21:42:42.631Z,27.80
2023-04-16T21:45:29.975Z,27.07
2023-04-16T21:48:15.627Z,28.07
2023-04-16T21:51:01.546Z,27.60
2023-04-16T21:53:46.922Z,26.83
2023-04-16T21:56:32.468Z,26.23
2023-04-16T21:59:17.742Z,26.23
2023-04-16T22:02:03.278Z,27.43
2023-04-16T22:04:48.392Z,26.93
2023-04-16T22:07:33.938Z,26.67
2023-04-16T22:10:19.215Z,26.50
2023-04-16T22:13:04.269Z,27.53
2023-04-16T22:15:49.620Z,26.50
2023-04-16T22:18:34.998Z,25.27
2023-04-16T22:21:20.470Z,26.33
2023-04-16T22:24:06.057Z,26.87
2023-04-16T22:26:51.371Z,25.83
2023-04-16T22:29:36.896Z,25.70
2023-04-16T22:32:22.507Z,25.20
2023-04-16T22:35:08.240Z,26.07
2023-04-16T22:37:53.098Z,26.07
2023-04-16T22:40:38.555Z,25.43
2023-04-16T22:43:23.842Z,25.63
2023-04-16T22:46:09.466Z,26.17
2023-04-16T22:48:55.089Z,25.30
2023-04-16T22:51:40.466Z,26.00
2023-04-16T22:54:32.727Z,26.50
2023-04-16T22:57:18.161Z,26.43
2023-04-16T23:00:03.990Z,26.97
2023-04-16T23:02:49.417Z,27.00
2023-04-16T23:05:34.944Z,27.43
2023-04-16T23:08:20.170Z,27.70
2023-04-16T23:11:05.586Z,27.03
2023-04-16T23:13:51.044Z,25.83
2023-04-16T23:16:36.338Z,27.03
2023-04-16T23:19:21.913Z,24.50
2023-04-16T23:22:07.107Z,24.27
2023-04-16T23:24:52.448Z,25.70
2023-04-16T23:27:37.598Z,24.70
2023-04-16T23:30:22.956Z,24.63
2023-04-16T23:33:07.852Z,23.17
2023-04-16T23:35:53.143Z,23.77
2023-04-16T23:38:38.630Z,23.37
2023-04-16T23:41:24.050Z,24.57
2023-04-16T23:44:09.497Z,23.37
2023-04-16T23:46:54.798Z,23.90
2023-04-16T23:49:40.237Z,24.23
2023-04-16T23:52:25.713Z,24.63
2023-04-16T23:55:10.586Z,24.50
2023-04-16T23:57:55.850Z,24.03
